sensor_id;sensor_type;location;lat;lon;timestamp;P1;durP1;ratioP1;P2;durP2;ratioP2
2299;SDS011;1158;48.750;9.078;2023-04-23T00:00:46;4.50;;;3.27;;
2299;SDS011;1158;48.750;9.078;2023-04-23T00:03:14;5.63;;;3.90;;
2299;SDS011;1158;48.750;9.078;2023-04-23T00:05:44;6.10;;;3.13;;
2299;SDS011;1158;48.750;9.078;2023-04-23T00:08:13;6.00;;;3.20;;
2299;SDS011;1158;48.750;9.078;2023-04-23T00:10:43;8.10;;;3.90;;
2299;SDS011;1158;48.750;9.078;2023-04-23T00:13:10;5.60;;;3.30;;
2299;SDS011;1158;48.750;9.078;2023-04-23T00:15:37;8.57;;;3.03;;
2299;SDS011;1158;48.750;9.078;2023-04-23T00:18:04;7.90;;;3.87;;
2299;SDS011;1158;48.750;9.078;2023-04-23T00:20:31;4.27;;;2.90;;
2299;SDS011;1158;48.750;9.078;2023-04-23T00:22:58;6.07;;;3.00;;
2299;SDS011;1158;48.750;9.078;2023-04-23T00:25:26;7.70;;;3.67;;
2299;SDS011;1158;48.750;9.078;2023-04-23T00:27:52;6.50;;;3.10;;
2299;SDS011;1158;48.750;9.078;2023-04-23T00:30:19;5.20;;;3.30;;
2299;SDS011;1158;48.750;9.078;2023-04-23T00:32:46;5.50;;;3.37;;
2299;SDS011;1158;48.750;9.078;2023-04-23T00:35:13;8.47;;;3.00;;
2299;SDS011;1158;48.750;9.078;2023-04-23T00:37:40;6.20;;;3.47;;
2299;SDS011;1158;48.750;9.078;2023-04-23T00:40:07;6.27;;;2.90;;
2299;SDS011;1158;48.750;9.078;2023-04-23T00:42:36;7.40;;;3.10;;
2299;SDS011;1158;48.750;9.078;2023-04-23T00:45:04;4.60;;;3.00;;
2299;SDS011;1158;48.750;9.078;2023-04-23T00:47:33;6.57;;;3.13;;
2299;SDS011;1158;48.750;9.078;2023-04-23T00:50:00;7.70;;;3.33;;
2299;SDS011;1158;48.750;9.078;2023-04-23T00:52:27;3.63;;;2.93;;
2299;SDS011;1158;48.750;9.078;2023-04-23T00:54:54;6.00;;;3.30;;
2299;SDS011;1158;48.750;9.078;2023-04-23T00:57:21;4.93;;;2.77;;
2299;SDS011;1158;48.750;9.078;2023-04-23T00:59:49;4.60;;;2.97;;
2299;SDS011;1158;48.750;9.078;2023-04-23T01:02:16;6.70;;;2.80;;
2299;SDS011;1158;48.750;9.078;2023-04-23T01:04:43;4.87;;;3.37;;
2299;SDS011;1158;48.750;9.078;2023-04-23T01:07:10;4.83;;;2.90;;
2299;SDS011;1158;48.750;9.078;2023-04-23T01:09:37;7.70;;;3.40;;
2299;SDS011;1158;48.750;9.078;2023-04-23T01:12:05;5.30;;;3.30;;
2299;SDS011;1158;48.750;9.078;2023-04-23T01:14:32;6.50;;;3.50;;
2299;SDS011;1158;48.750;9.078;2023-04-23T01:17:00;4.70;;;3.10;;
2299;SDS011;1158;48.750;9.078;2023-04-23T01:19:27;4.50;;;3.07;;
2299;SDS011;1158;48.750;9.078;2023-04-23T01:21:54;4.40;;;2.80;;
2299;SDS011;1158;48.750;9.078;2023-04-23T01:24:26;5.50;;;3.07;;
2299;SDS011;1158;48.750;9.078;2023-04-23T01:26:54;12.73;;;4.00;;
2299;SDS011;1158;48.750;9.078;2023-04-23T01:29:21;5.67;;;3.67;;
2299;SDS011;1158;48.750;9.078;2023-04-23T01:31:47;6.40;;;3.37;;
2299;SDS011;1158;48.750;9.078;2023-04-23T01:34:15;5.90;;;3.27;;
2299;SDS011;1158;48.750;9.078;2023-04-23T01:36:42;6.33;;;3.70;;
2299;SDS011;1158;48.750;9.078;2023-04-23T01:39:09;10.60;;;3.63;;
2299;SDS011;1158;48.750;9.078;2023-04-23T01:41:37;5.57;;;3.33;;
2299;SDS011;1158;48.750;9.078;2023-04-23T01:44:05;5.57;;;3.13;;
2299;SDS011;1158;48.750;9.078;2023-04-23T01:46:31;9.67;;;3.67;;
2299;SDS011;1158;48.750;9.078;2023-04-23T01:48:59;7.93;;;4.00;;
2299;SDS011;1158;48.750;9.078;2023-04-23T01:51:25;5.53;;;3.20;;
2299;SDS011;1158;48.750;9.078;2023-04-23T01:53:53;6.30;;;3.33;;
2299;SDS011;1158;48.750;9.078;2023-04-23T01:56:20;5.77;;;3.27;;
2299;SDS011;1158;48.750;9.078;2023-04-23T01:58:52;5.37;;;3.47;;
2299;SDS011;1158;48.750;9.078;2023-04-23T02:01:18;4.67;;;3.20;;
2299;SDS011;1158;48.750;9.078;2023-04-23T02:03:45;7.63;;;3.20;;
2299;SDS011;1158;48.750;9.078;2023-04-23T02:06:14;7.10;;;3.37;;
2299;SDS011;1158;48.750;9.078;2023-04-23T02:08:41;7.37;;;3.80;;
2299;SDS011;1158;48.750;9.078;2023-04-23T02:11:08;6.03;;;3.60;;
2299;SDS011;1158;48.750;9.078;2023-04-23T02:13:35;4.50;;;3.00;;
2299;SDS011;1158;48.750;9.078;2023-04-23T02:16:03;5.10;;;2.97;;
2299;SDS011;1158;48.750;9.078;2023-04-23T02:18:30;4.40;;;3.03;;
2299;SDS011;1158;48.750;9.078;2023-04-23T02:20:57;6.33;;;3.57;;
2299;SDS011;1158;48.750;9.078;2023-04-23T02:23:24;4.10;;;3.17;;
2299;SDS011;1158;48.750;9.078;2023-04-23T02:25:50;4.53;;;3.13;;
2299;SDS011;1158;48.750;9.078;2023-04-23T02:28:17;4.37;;;2.83;;
2299;SDS011;1158;48.750;9.078;2023-04-23T02:30:44;5.80;;;3.10;;
2299;SDS011;1158;48.750;9.078;2023-04-23T02:33:13;4.53;;;3.13;;
2299;SDS011;1158;48.750;9.078;2023-04-23T02:35:40;5.47;;;3.50;;
2299;SDS011;1158;48.750;9.078;2023-04-23T02:38:06;5.13;;;3.10;;
2299;SDS011;1158;48.750;9.078;2023-04-23T02:40:33;6.73;;;3.23;;
2299;SDS011;1158;48.750;9.078;2023-04-23T02:43:00;5.30;;;3.20;;
2299;SDS011;1158;48.750;9.078;2023-04-23T02:45:27;5.70;;;3.90;;
2299;SDS011;1158;48.750;9.078;2023-04-23T02:47:53;5.63;;;3.30;;
2299;SDS011;1158;48.750;9.078;2023-04-23T02:50:21;4.73;;;2.87;;
2299;SDS011;1158;48.750;9.078;2023-04-23T02:52:48;4.10;;;3.20;;
2299;SDS011;1158;48.750;9.078;2023-04-23T02:55:15;4.23;;;3.00;;
2299;SDS011;1158;48.750;9.078;2023-04-23T02:57:42;5.70;;;3.37;;
2299;SDS011;1158;48.750;9.078;2023-04-23T03:00:09;6.40;;;2.90;;
2299;SDS011;1158;48.750;9.078;2023-04-23T03:02:38;5.77;;;3.27;;
2299;SDS011;1158;48.750;9.078;2023-04-23T03:05:05;7.10;;;3.43;;
2299;SDS011;1158;48.750;9.078;2023-04-23T03:07:34;3.60;;;3.00;;
2299;SDS011;1158;48.750;9.078;2023-04-23T03:10:01;5.60;;;3.20;;
2299;SDS011;1158;48.750;9.078;2023-04-23T03:12:27;5.47;;;3.00;;
2299;SDS011;1158;48.750;9.078;2023-04-23T03:14:54;8.03;;;3.77;;
2299;SDS011;1158;48.750;9.078;2023-04-23T03:17:21;6.27;;;3.80;;
2299;SDS011;1158;48.750;9.078;2023-04-23T03:19:48;4.83;;;3.43;;
2299;SDS011;1158;48.750;9.078;2023-04-23T03:22:14;4.30;;;3.10;;
2299;SDS011;1158;48.750;9.078;2023-04-23T03:24:42;5.67;;;3.83;;
2299;SDS011;1158;48.750;9.078;2023-04-23T03:27:09;5.00;;;3.30;;
2299;SDS011;1158;48.750;9.078;2023-04-23T03:29:36;8.13;;;3.40;;
2299;SDS011;1158;48.750;9.078;2023-04-23T03:32:02;6.13;;;3.33;;
2299;SDS011;1158;48.750;9.078;2023-04-23T03:34:29;4.37;;;3.10;;
2299;SDS011;1158;48.750;9.078;2023-04-23T03:36:56;6.13;;;3.50;;
2299;SDS011;1158;48.750;9.078;2023-04-23T03:39:22;5.20;;;3.20;;
2299;SDS011;1158;48.750;9.078;2023-04-23T03:41:51;4.00;;;2.80;;
2299;SDS011;1158;48.750;9.078;2023-04-23T03:44:17;4.37;;;3.10;;
2299;SDS011;1158;48.750;9.078;2023-04-23T03:46:44;4.20;;;3.00;;
2299;SDS011;1158;48.750;9.078;2023-04-23T03:49:10;4.90;;;3.60;;
2299;SDS011;1158;48.750;9.078;2023-04-23T03:51:37;6.53;;;3.63;;
2299;SDS011;1158;48.750;9.078;2023-04-23T03:54:04;5.23;;;3.50;;
2299;SDS011;1158;48.750;9.078;2023-04-23T03:56:31;4.30;;;3.33;;
2299;SDS011;1158;48.750;9.078;2023-04-23T03:58:59;4.53;;;3.50;;
2299;SDS011;1158;48.750;9.078;2023-04-23T04:01:25;7.90;;;4.40;;
2299;SDS011;1158;48.750;9.078;2023-04-23T04:03:52;4.93;;;2.93;;
2299;SDS011;1158;48.750;9.078;2023-04-23T04:06:19;4.03;;;3.10;;
2299;SDS011;1158;48.750;9.078;2023-04-23T04:08:45;5.10;;;3.00;;
2299;SDS011;1158;48.750;9.078;2023-04-23T04:11:12;5.30;;;3.10;;
2299;SDS011;1158;48.750;9.078;2023-04-23T04:13:39;3.73;;;2.80;;
2299;SDS011;1158;48.750;9.078;2023-04-23T04:16:07;3.97;;;3.00;;
2299;SDS011;1158;48.750;9.078;2023-04-23T04:18:34;5.03;;;3.07;;
2299;SDS011;1158;48.750;9.078;2023-04-23T04:21:00;4.97;;;3.20;;
2299;SDS011;1158;48.750;9.078;2023-04-23T04:23:27;3.23;;;2.40;;
2299;SDS011;1158;48.750;9.078;2023-04-23T04:25:55;5.23;;;2.90;;
2299;SDS011;1158;48.750;9.078;2023-04-23T04:28:21;4.50;;;3.50;;
2299;SDS011;1158;48.750;9.078;2023-04-23T04:30:49;4.00;;;3.00;;
2299;SDS011;1158;48.750;9.078;2023-04-23T04:33:17;4.50;;;2.87;;
2299;SDS011;1158;48.750;9.078;2023-04-23T04:35:44;3.40;;;2.90;;
2299;SDS011;1158;48.750;9.078;2023-04-23T04:38:12;3.90;;;3.00;;
2299;SDS011;1158;48.750;9.078;2023-04-23T04:40:39;6.37;;;2.83;;
2299;SDS011;1158;48.750;9.078;2023-04-23T04:43:06;4.10;;;2.90;;
2299;SDS011;1158;48.750;9.078;2023-04-23T04:45:34;4.60;;;2.90;;
2299;SDS011;1158;48.750;9.078;2023-04-23T04:48:00;3.80;;;3.40;;
2299;SDS011;1158;48.750;9.078;2023-04-23T04:50:28;4.80;;;3.17;;
2299;SDS011;1158;48.750;9.078;2023-04-23T04:52:55;13.00;;;6.77;;
2299;SDS011;1158;48.750;9.078;2023-04-23T04:55:22;5.17;;;4.30;;
2299;SDS011;1158;48.750;9.078;2023-04-23T04:57:48;6.07;;;4.13;;
2299;SDS011;1158;48.750;9.078;2023-04-23T05:00:19;7.27;;;4.87;;
2299;SDS011;1158;48.750;9.078;2023-04-23T05:02:47;10.43;;;6.53;;
2299;SDS011;1158;48.750;9.078;2023-04-23T05:05:16;23.57;;;13.23;;
2299;SDS011;1158;48.750;9.078;2023-04-23T05:07:45;21.97;;;14.10;;
2299;SDS011;1158;48.750;9.078;2023-04-23T05:10:12;9.50;;;6.30;;
2299;SDS011;1158;48.750;9.078;2023-04-23T05:12:39;13.00;;;8.73;;
2299;SDS011;1158;48.750;9.078;2023-04-23T05:15:07;10.23;;;6.53;;
2299;SDS011;1158;48.750;9.078;2023-04-23T05:17:35;5.97;;;4.60;;
2299;SDS011;1158;48.750;9.078;2023-04-23T05:20:01;4.53;;;3.27;;
2299;SDS011;1158;48.750;9.078;2023-04-23T05:22:29;11.50;;;4.00;;
2299;SDS011;1158;48.750;9.078;2023-04-23T05:24:57;6.43;;;3.70;;
2299;SDS011;1158;48.750;9.078;2023-04-23T05:27:23;8.50;;;3.83;;
2299;SDS011;1158;48.750;9.078;2023-04-23T05:29:50;5.13;;;3.50;;
2299;SDS011;1158;48.750;9.078;2023-04-23T05:32:17;4.93;;;3.60;;
2299;SDS011;1158;48.750;9.078;2023-04-23T05:34:44;4.63;;;3.80;;
2299;SDS011;1158;48.750;9.078;2023-04-23T05:37:11;6.03;;;3.60;;
2299;SDS011;1158;48.750;9.078;2023-04-23T05:39:37;4.10;;;3.40;;
2299;SDS011;1158;48.750;9.078;2023-04-23T05:42:05;3.83;;;2.77;;
2299;SDS011;1158;48.750;9.078;2023-04-23T05:44:32;3.27;;;2.40;;
2299;SDS011;1158;48.750;9.078;2023-04-23T05:46:59;2.10;;;1.40;;
2299;SDS011;1158;48.750;9.078;2023-04-23T05:49:25;3.73;;;1.73;;
2299;SDS011;1158;48.750;9.078;2023-04-23T05:51:52;3.00;;;1.50;;
2299;SDS011;1158;48.750;9.078;2023-04-23T05:54:19;3.30;;;1.63;;
2299;SDS011;1158;48.750;9.078;2023-04-23T05:56:46;3.10;;;1.80;;
2299;SDS011;1158;48.750;9.078;2023-04-23T05:59:14;3.07;;;1.67;;
2299;SDS011;1158;48.750;9.078;2023-04-23T06:01:41;2.77;;;1.70;;
2299;SDS011;1158;48.750;9.078;2023-04-23T06:04:07;2.07;;;1.30;;
2299;SDS011;1158;48.750;9.078;2023-04-23T06:06:34;2.80;;;1.30;;
2299;SDS011;1158;48.750;9.078;2023-04-23T06:09:01;2.10;;;1.20;;
2299;SDS011;1158;48.750;9.078;2023-04-23T06:11:28;2.33;;;1.37;;
2299;SDS011;1158;48.750;9.078;2023-04-23T06:13:56;1.67;;;1.07;;
2299;SDS011;1158;48.750;9.078;2023-04-23T06:16:24;2.30;;;0.93;;
2299;SDS011;1158;48.750;9.078;2023-04-23T06:18:51;1.70;;;1.10;;
2299;SDS011;1158;48.750;9.078;2023-04-23T06:21:18;1.70;;;1.20;;
2299;SDS011;1158;48.750;9.078;2023-04-23T06:23:45;2.40;;;1.17;;
2299;SDS011;1158;48.750;9.078;2023-04-23T06:26:11;2.13;;;1.50;;
2299;SDS011;1158;48.750;9.078;2023-04-23T06:28:39;2.00;;;0.97;;
2299;SDS011;1158;48.750;9.078;2023-04-23T06:31:06;2.20;;;1.50;;
2299;SDS011;1158;48.750;9.078;2023-04-23T06:33:35;2.00;;;1.30;;
2299;SDS011;1158;48.750;9.078;2023-04-23T06:36:01;2.60;;;1.60;;
2299;SDS011;1158;48.750;9.078;2023-04-23T06:38:28;2.37;;;1.40;;
2299;SDS011;1158;48.750;9.078;2023-04-23T06:40:55;2.10;;;1.30;;
2299;SDS011;1158;48.750;9.078;2023-04-23T06:43:22;2.60;;;1.27;;
2299;SDS011;1158;48.750;9.078;2023-04-23T06:45:49;6.20;;;1.17;;
2299;SDS011;1158;48.750;9.078;2023-04-23T06:48:16;1.70;;;0.90;;
2299;SDS011;1158;48.750;9.078;2023-04-23T06:50:46;3.47;;;1.50;;
2299;SDS011;1158;48.750;9.078;2023-04-23T06:53:13;2.20;;;1.13;;
2299;SDS011;1158;48.750;9.078;2023-04-23T06:55:40;2.00;;;1.20;;
2299;SDS011;1158;48.750;9.078;2023-04-23T06:58:06;5.10;;;1.40;;
2299;SDS011;1158;48.750;9.078;2023-04-23T07:00:33;2.00;;;1.20;;
2299;SDS011;1158;48.750;9.078;2023-04-23T07:03:00;2.00;;;1.13;;
2299;SDS011;1158;48.750;9.078;2023-04-23T07:05:27;2.43;;;1.20;;
2299;SDS011;1158;48.750;9.078;2023-04-23T07:07:55;1.67;;;1.07;;
2299;SDS011;1158;48.750;9.078;2023-04-23T07:10:21;4.07;;;1.60;;
2299;SDS011;1158;48.750;9.078;2023-04-23T07:12:48;2.97;;;1.40;;
2299;SDS011;1158;48.750;9.078;2023-04-23T07:15:15;2.20;;;1.40;;
2299;SDS011;1158;48.750;9.078;2023-04-23T07:17:42;1.70;;;1.10;;
2299;SDS011;1158;48.750;9.078;2023-04-23T07:20:08;2.50;;;1.53;;
2299;SDS011;1158;48.750;9.078;2023-04-23T07:22:36;3.23;;;1.50;;
2299;SDS011;1158;48.750;9.078;2023-04-23T07:25:04;1.80;;;1.30;;
2299;SDS011;1158;48.750;9.078;2023-04-23T07:27:32;2.00;;;1.33;;
2299;SDS011;1158;48.750;9.078;2023-04-23T07:29:59;2.20;;;1.70;;
2299;SDS011;1158;48.750;9.078;2023-04-23T07:32:26;2.37;;;1.43;;
2299;SDS011;1158;48.750;9.078;2023-04-23T07:34:53;3.23;;;2.07;;
2299;SDS011;1158;48.750;9.078;2023-04-23T07:37:20;2.90;;;1.57;;
2299;SDS011;1158;48.750;9.078;2023-04-23T07:39:47;2.87;;;1.63;;
2299;SDS011;1158;48.750;9.078;2023-04-23T07:42:15;2.27;;;1.40;;
2299;SDS011;1158;48.750;9.078;2023-04-23T07:44:42;3.83;;;1.40;;
2299;SDS011;1158;48.750;9.078;2023-04-23T07:47:08;4.07;;;1.60;;
2299;SDS011;1158;48.750;9.078;2023-04-23T07:49:35;2.70;;;1.90;;
2299;SDS011;1158;48.750;9.078;2023-04-23T07:52:02;2.40;;;1.63;;
2299;SDS011;1158;48.750;9.078;2023-04-23T07:54:28;2.60;;;1.50;;
2299;SDS011;1158;48.750;9.078;2023-04-23T07:56:55;2.63;;;1.70;;
2299;SDS011;1158;48.750;9.078;2023-04-23T07:59:23;4.60;;;2.03;;
2299;SDS011;1158;48.750;9.078;2023-04-23T08:01:50;4.60;;;1.70;;
2299;SDS011;1158;48.750;9.078;2023-04-23T08:04:17;3.03;;;1.80;;
2299;SDS011;1158;48.750;9.078;2023-04-23T08:06:43;2.83;;;1.60;;
2299;SDS011;1158;48.750;9.078;2023-04-23T08:09:10;2.80;;;1.77;;
2299;SDS011;1158;48.750;9.078;2023-04-23T08:11:37;2.93;;;1.80;;
2299;SDS011;1158;48.750;9.078;2023-04-23T08:14:03;2.13;;;1.57;;
2299;SDS011;1158;48.750;9.078;2023-04-23T08:16:31;2.10;;;1.30;;
2299;SDS011;1158;48.750;9.078;2023-04-23T08:18:58;2.80;;;1.60;;
2299;SDS011;1158;48.750;9.078;2023-04-23T08:21:25;2.60;;;1.80;;
2299;SDS011;1158;48.750;9.078;2023-04-23T08:23:52;2.87;;;1.70;;
2299;SDS011;1158;48.750;9.078;2023-04-23T08:26:19;3.20;;;1.63;;
2299;SDS011;1158;48.750;9.078;2023-04-23T08:28:47;2.53;;;1.40;;
2299;SDS011;1158;48.750;9.078;2023-04-23T08:31:14;7.30;;;1.57;;
2299;SDS011;1158;48.750;9.078;2023-04-23T08:33:42;2.47;;;1.47;;
2299;SDS011;1158;48.750;9.078;2023-04-23T08:36:09;3.73;;;1.73;;
2299;SDS011;1158;48.750;9.078;2023-04-23T08:38:36;2.67;;;1.40;;
2299;SDS011;1158;48.750;9.078;2023-04-23T08:41:04;2.83;;;1.60;;
2299;SDS011;1158;48.750;9.078;2023-04-23T08:43:36;2.63;;;1.53;;
2299;SDS011;1158;48.750;9.078;2023-04-23T08:46:12;2.40;;;1.60;;
2299;SDS011;1158;48.750;9.078;2023-04-23T08:48:40;3.23;;;1.67;;
2299;SDS011;1158;48.750;9.078;2023-04-23T08:51:10;2.60;;;1.40;;
2299;SDS011;1158;48.750;9.078;2023-04-23T08:53:42;6.43;;;1.90;;
2299;SDS011;1158;48.750;9.078;2023-04-23T08:56:09;2.87;;;1.57;;
2299;SDS011;1158;48.750;9.078;2023-04-23T08:58:38;4.03;;;1.80;;
2299;SDS011;1158;48.750;9.078;2023-04-23T09:01:06;2.73;;;1.60;;
2299;SDS011;1158;48.750;9.078;2023-04-23T09:03:34;2.60;;;1.50;;
2299;SDS011;1158;48.750;9.078;2023-04-23T09:06:01;2.30;;;1.80;;
2299;SDS011;1158;48.750;9.078;2023-04-23T09:08:30;2.33;;;1.50;;
2299;SDS011;1158;48.750;9.078;2023-04-23T09:10:57;4.23;;;1.90;;
2299;SDS011;1158;48.750;9.078;2023-04-23T09:13:27;2.87;;;1.70;;
2299;SDS011;1158;48.750;9.078;2023-04-23T09:15:55;2.10;;;1.50;;
2299;SDS011;1158;48.750;9.078;2023-04-23T09:18:22;2.13;;;1.70;;
2299;SDS011;1158;48.750;9.078;2023-04-23T09:20:49;3.00;;;1.93;;
2299;SDS011;1158;48.750;9.078;2023-04-23T09:23:16;2.73;;;1.40;;
2299;SDS011;1158;48.750;9.078;2023-04-23T09:25:48;2.60;;;1.40;;
2299;SDS011;1158;48.750;9.078;2023-04-23T09:28:14;2.20;;;1.57;;
2299;SDS011;1158;48.750;9.078;2023-04-23T09:30:42;2.57;;;1.53;;
2299;SDS011;1158;48.750;9.078;2023-04-23T09:33:09;2.00;;;1.50;;
2299;SDS011;1158;48.750;9.078;2023-04-23T09:35:37;2.30;;;1.37;;
2299;SDS011;1158;48.750;9.078;2023-04-23T09:38:06;6.10;;;1.83;;
2299;SDS011;1158;48.750;9.078;2023-04-23T09:40:34;2.63;;;1.50;;
2299;SDS011;1158;48.750;9.078;2023-04-23T09:43:03;4.20;;;1.80;;
2299;SDS011;1158;48.750;9.078;2023-04-23T09:45:31;3.97;;;1.57;;
2299;SDS011;1158;48.750;9.078;2023-04-23T09:47:59;2.40;;;1.57;;
2299;SDS011;1158;48.750;9.078;2023-04-23T09:50:32;2.03;;;1.47;;
2299;SDS011;1158;48.750;9.078;2023-04-23T09:53:00;2.90;;;1.40;;
2299;SDS011;1158;48.750;9.078;2023-04-23T09:55:28;2.20;;;1.40;;
2299;SDS011;1158;48.750;9.078;2023-04-23T09:57:59;2.20;;;1.50;;
2299;SDS011;1158;48.750;9.078;2023-04-23T10:00:28;3.00;;;1.33;;
2299;SDS011;1158;48.750;9.078;2023-04-23T10:02:58;4.10;;;1.90;;
2299;SDS011;1158;48.750;9.078;2023-04-23T10:05:26;5.30;;;1.70;;
2299;SDS011;1158;48.750;9.078;2023-04-23T10:07:53;3.73;;;1.60;;
2299;SDS011;1158;48.750;9.078;2023-04-23T10:10:21;2.17;;;1.40;;
2299;SDS011;1158;48.750;9.078;2023-04-23T10:12:48;3.20;;;1.87;;
2299;SDS011;1158;48.750;9.078;2023-04-23T10:15:17;3.30;;;1.60;;
2299;SDS011;1158;48.750;9.078;2023-04-23T10:17:45;3.23;;;1.60;;
2299;SDS011;1158;48.750;9.078;2023-04-23T10:20:12;2.73;;;1.90;;
2299;SDS011;1158;48.750;9.078;2023-04-23T10:22:41;2.33;;;1.70;;
2299;SDS011;1158;48.750;9.078;2023-04-23T10:25:10;2.60;;;1.80;;
2299;SDS011;1158;48.750;9.078;2023-04-23T10:27:39;4.30;;;1.90;;
2299;SDS011;1158;48.750;9.078;2023-04-23T10:30:08;2.00;;;1.40;;
2299;SDS011;1158;48.750;9.078;2023-04-23T10:32:37;1.80;;;1.33;;
2299;SDS011;1158;48.750;9.078;2023-04-23T10:35:06;5.77;;;2.13;;
2299;SDS011;1158;48.750;9.078;2023-04-23T10:37:34;3.07;;;1.23;;
2299;SDS011;1158;48.750;9.078;2023-04-23T10:40:04;2.30;;;1.47;;
2299;SDS011;1158;48.750;9.078;2023-04-23T10:42:35;4.70;;;1.60;;
2299;SDS011;1158;48.750;9.078;2023-04-23T10:45:07;2.17;;;1.33;;
2299;SDS011;1158;48.750;9.078;2023-04-23T10:47:37;2.00;;;1.37;;
2299;SDS011;1158;48.750;9.078;2023-04-23T10:50:18;3.07;;;1.27;;
2299;SDS011;1158;48.750;9.078;2023-04-23T10:52:46;2.07;;;1.53;;
2299;SDS011;1158;48.750;9.078;2023-04-23T10:55:17;5.13;;;1.57;;
2299;SDS011;1158;48.750;9.078;2023-04-23T10:57:55;3.03;;;1.33;;
2299;SDS011;1158;48.750;9.078;2023-04-23T11:00:22;2.70;;;1.30;;
2299;SDS011;1158;48.750;9.078;2023-04-23T11:02:49;1.80;;;1.20;;
2299;SDS011;1158;48.750;9.078;2023-04-23T11:05:18;2.20;;;1.20;;
2299;SDS011;1158;48.750;9.078;2023-04-23T11:08:00;2.60;;;1.27;;
2299;SDS011;1158;48.750;9.078;2023-04-23T11:10:29;2.30;;;1.30;;
2299;SDS011;1158;48.750;9.078;2023-04-23T11:12:56;3.00;;;1.20;;
2299;SDS011;1158;48.750;9.078;2023-04-23T11:15:23;2.20;;;1.23;;
2299;SDS011;1158;48.750;9.078;2023-04-23T11:17:59;1.87;;;1.07;;
2299;SDS011;1158;48.750;9.078;2023-04-23T11:20:28;2.37;;;1.40;;
2299;SDS011;1158;48.750;9.078;2023-04-23T11:22:55;2.27;;;1.23;;
2299;SDS011;1158;48.750;9.078;2023-04-23T11:25:22;5.10;;;1.60;;
2299;SDS011;1158;48.750;9.078;2023-04-23T11:27:51;2.03;;;1.20;;
2299;SDS011;1158;48.750;9.078;2023-04-23T11:30:20;1.90;;;1.13;;
2299;SDS011;1158;48.750;9.078;2023-04-23T11:32:48;2.40;;;1.40;;
2299;SDS011;1158;48.750;9.078;2023-04-23T11:35:16;2.40;;;1.50;;
2299;SDS011;1158;48.750;9.078;2023-04-23T11:37:46;2.70;;;1.20;;
2299;SDS011;1158;48.750;9.078;2023-04-23T11:40:13;4.20;;;1.50;;
2299;SDS011;1158;48.750;9.078;2023-04-23T11:42:44;2.57;;;1.53;;
2299;SDS011;1158;48.750;9.078;2023-04-23T11:45:15;3.00;;;1.47;;
2299;SDS011;1158;48.750;9.078;2023-04-23T11:47:43;4.33;;;1.87;;
2299;SDS011;1158;48.750;9.078;2023-04-23T11:50:10;2.43;;;1.10;;
2299;SDS011;1158;48.750;9.078;2023-04-23T11:52:42;2.30;;;1.50;;
2299;SDS011;1158;48.750;9.078;2023-04-23T11:55:10;2.30;;;1.50;;
2299;SDS011;1158;48.750;9.078;2023-04-23T11:57:40;2.57;;;1.37;;
2299;SDS011;1158;48.750;9.078;2023-04-23T12:00:11;6.30;;;4.53;;
2299;SDS011;1158;48.750;9.078;2023-04-23T12:02:49;1.90;;;1.17;;
2299;SDS011;1158;48.750;9.078;2023-04-23T12:05:18;2.47;;;1.20;;
2299;SDS011;1158;48.750;9.078;2023-04-23T12:07:47;2.07;;;1.17;;
2299;SDS011;1158;48.750;9.078;2023-04-23T12:10:17;1.93;;;1.30;;
2299;SDS011;1158;48.750;9.078;2023-04-23T12:12:48;3.70;;;1.90;;
2299;SDS011;1158;48.750;9.078;2023-04-23T12:15:15;2.77;;;1.20;;
2299;SDS011;1158;48.750;9.078;2023-04-23T12:17:46;1.80;;;1.27;;
2299;SDS011;1158;48.750;9.078;2023-04-23T12:20:15;6.23;;;3.70;;
2299;SDS011;1158;48.750;9.078;2023-04-23T12:22:43;1.80;;;1.20;;
2299;SDS011;1158;48.750;9.078;2023-04-23T12:25:10;2.20;;;1.30;;
2299;SDS011;1158;48.750;9.078;2023-04-23T12:27:39;2.50;;;1.30;;
2299;SDS011;1158;48.750;9.078;2023-04-23T12:30:06;8.37;;;4.87;;
2299;SDS011;1158;48.750;9.078;2023-04-23T12:32:35;6.13;;;2.80;;
2299;SDS011;1158;48.750;9.078;2023-04-23T12:35:02;6.53;;;1.27;;
2299;SDS011;1158;48.750;9.078;2023-04-23T12:37:33;3.57;;;2.07;;
2299;SDS011;1158;48.750;9.078;2023-04-23T12:40:10;1.80;;;1.17;;
2299;SDS011;1158;48.750;9.078;2023-04-23T12:42:38;2.63;;;1.10;;
2299;SDS011;1158;48.750;9.078;2023-04-23T12:47:34;2.20;;;1.20;;
2299;SDS011;1158;48.750;9.078;2023-04-23T12:50:01;2.03;;;1.30;;
2299;SDS011;1158;48.750;9.078;2023-04-23T12:52:29;2.10;;;1.17;;
2299;SDS011;1158;48.750;9.078;2023-04-23T12:54:56;5.03;;;1.17;;
2299;SDS011;1158;48.750;9.078;2023-04-23T12:57:25;8.30;;;0.97;;
2299;SDS011;1158;48.750;9.078;2023-04-23T12:59:53;3.30;;;2.00;;
2299;SDS011;1158;48.750;9.078;2023-04-23T13:02:20;3.83;;;1.03;;
2299;SDS011;1158;48.750;9.078;2023-04-23T13:04:48;1.87;;;0.97;;
2299;SDS011;1158;48.750;9.078;2023-04-23T13:07:14;2.73;;;1.10;;
2299;SDS011;1158;48.750;9.078;2023-04-23T13:09:41;3.57;;;1.47;;
2299;SDS011;1158;48.750;9.078;2023-04-23T13:12:08;2.37;;;1.43;;
2299;SDS011;1158;48.750;9.078;2023-04-23T13:14:35;2.10;;;1.10;;
2299;SDS011;1158;48.750;9.078;2023-04-23T13:17:03;2.50;;;1.43;;
2299;SDS011;1158;48.750;9.078;2023-04-23T13:19:30;2.10;;;1.23;;
2299;SDS011;1158;48.750;9.078;2023-04-23T13:21:58;2.00;;;1.20;;
2299;SDS011;1158;48.750;9.078;2023-04-23T13:24:24;2.37;;;1.20;;
2299;SDS011;1158;48.750;9.078;2023-04-23T13:26:51;2.17;;;1.20;;
2299;SDS011;1158;48.750;9.078;2023-04-23T13:29:18;2.30;;;0.93;;
2299;SDS011;1158;48.750;9.078;2023-04-23T13:31:44;1.93;;;1.13;;
2299;SDS011;1158;48.750;9.078;2023-04-23T13:34:12;1.90;;;1.00;;
2299;SDS011;1158;48.750;9.078;2023-04-23T13:36:39;2.97;;;1.27;;
2299;SDS011;1158;48.750;9.078;2023-04-23T13:39:06;2.50;;;0.93;;
2299;SDS011;1158;48.750;9.078;2023-04-23T13:41:33;1.90;;;1.10;;
2299;SDS011;1158;48.750;9.078;2023-04-23T13:44:00;2.30;;;1.30;;
2299;SDS011;1158;48.750;9.078;2023-04-23T13:46:27;3.20;;;0.90;;
2299;SDS011;1158;48.750;9.078;2023-04-23T13:48:54;3.77;;;1.23;;
2299;SDS011;1158;48.750;9.078;2023-04-23T13:51:22;2.90;;;1.43;;
2299;SDS011;1158;48.750;9.078;2023-04-23T13:53:49;3.63;;;1.30;;
2299;SDS011;1158;48.750;9.078;2023-04-23T13:56:15;3.07;;;1.47;;
2299;SDS011;1158;48.750;9.078;2023-04-23T13:58:42;2.70;;;1.47;;
2299;SDS011;1158;48.750;9.078;2023-04-23T14:01:11;3.40;;;1.27;;
2299;SDS011;1158;48.750;9.078;2023-04-23T14:03:39;2.37;;;1.10;;
2299;SDS011;1158;48.750;9.078;2023-04-23T14:06:06;1.80;;;1.10;;
2299;SDS011;1158;48.750;9.078;2023-04-23T14:08:34;3.70;;;0.90;;
2299;SDS011;1158;48.750;9.078;2023-04-23T14:11:02;5.10;;;1.23;;
2299;SDS011;1158;48.750;9.078;2023-04-23T14:13:29;2.60;;;1.13;;
2299;SDS011;1158;48.750;9.078;2023-04-23T14:15:57;3.40;;;1.27;;
2299;SDS011;1158;48.750;9.078;2023-04-23T14:18:24;2.60;;;1.20;;
2299;SDS011;1158;48.750;9.078;2023-04-23T14:20:51;3.60;;;1.10;;
2299;SDS011;1158;48.750;9.078;2023-04-23T14:23:42;4.73;;;1.37;;
2299;SDS011;1158;48.750;9.078;2023-04-23T14:26:21;2.97;;;1.23;;
2299;SDS011;1158;48.750;9.078;2023-04-23T14:28:53;4.00;;;1.17;;
2299;SDS011;1158;48.750;9.078;2023-04-23T14:31:22;2.60;;;1.30;;
2299;SDS011;1158;48.750;9.078;2023-04-23T14:33:49;1.90;;;1.10;;
2299;SDS011;1158;48.750;9.078;2023-04-23T14:36:16;2.67;;;1.20;;
2299;SDS011;1158;48.750;9.078;2023-04-23T14:38:44;3.43;;;1.20;;
2299;SDS011;1158;48.750;9.078;2023-04-23T14:41:10;2.90;;;1.30;;
2299;SDS011;1158;48.750;9.078;2023-04-23T14:43:37;4.53;;;1.67;;
2299;SDS011;1158;48.750;9.078;2023-04-23T14:46:04;2.13;;;1.23;;
2299;SDS011;1158;48.750;9.078;2023-04-23T14:48:30;3.20;;;1.40;;
2299;SDS011;1158;48.750;9.078;2023-04-23T14:50:57;5.10;;;1.47;;
2299;SDS011;1158;48.750;9.078;2023-04-23T14:53:24;3.33;;;1.33;;
2299;SDS011;1158;48.750;9.078;2023-04-23T14:55:52;2.43;;;1.40;;
2299;SDS011;1158;48.750;9.078;2023-04-23T14:58:19;2.60;;;1.27;;
2299;SDS011;1158;48.750;9.078;2023-04-23T15:00:45;4.30;;;1.70;;
2299;SDS011;1158;48.750;9.078;2023-04-23T15:03:13;4.57;;;1.60;;
2299;SDS011;1158;48.750;9.078;2023-04-23T15:05:40;4.00;;;1.90;;
2299;SDS011;1158;48.750;9.078;2023-04-23T15:08:07;6.23;;;1.50;;
2299;SDS011;1158;48.750;9.078;2023-04-23T15:10:33;4.60;;;1.50;;
2299;SDS011;1158;48.750;9.078;2023-04-23T15:13:02;3.07;;;1.60;;
2299;SDS011;1158;48.750;9.078;2023-04-23T15:15:36;3.93;;;1.80;;
2299;SDS011;1158;48.750;9.078;2023-04-23T15:18:07;4.80;;;1.40;;
2299;SDS011;1158;48.750;9.078;2023-04-23T15:20:33;4.70;;;1.90;;